HKE234 VHHH-ZBAD
Flight info
| Callsign | HKE234 |
|---|---|
| Flight time | 2h 10m |
| Altitude | 35100 |
| Route | BEKOL1D BEKOL A461 BUBDA/K0854S1040 W56 REBIS/K0852S1070 W56 ORODO/K0833S1100 W62 KARVU/K0828S1070 W62 IGDID/K0832S1100 W62 TEKIL/K0822S1130 G212 BELAX BELAX5L |
| Aircraft | A321/M-SDE3FGHIRWY/LB1 |
Departure
| Time | 2026-04-21 11:48 |
|---|---|
| Airport | Hong Kong International Airport (VHHH) |
Arrival
| Time | 2026-04-21 13:59 |
|---|---|
| Airport | Beijing Daxing International Airport (ZBAD) |
| Time | Latitude | Longitude | Altitude | Speed | Heading |
|---|---|---|---|---|---|
| 2026-04-21 10:54 | 22.31163 | 113.91626 | 37 ft | 0 kts | 71° |
| 2026-04-21 10:59 | 22.31163 | 113.91625 | 37 ft | 0 kts | 71° |
| 2026-04-21 11:20 | 22.31162 | 113.91625 | 10 ft | 0 kts | 71° |
| 2026-04-21 11:36 | 22.31162 | 113.91623 | 37 ft | 2 kts | 71° |
| 2026-04-21 11:36 | 22.31154 | 113.91597 | 34 ft | 4 kts | 71° |
| 2026-04-21 11:37 | 22.31148 | 113.91579 | 35 ft | 4 kts | 71° |
| 2026-04-21 11:37 | 22.31140 | 113.91555 | 33 ft | 3 kts | 71° |
| 2026-04-21 11:37 | 22.31140 | 113.91524 | 34 ft | 4 kts | 142° |
| 2026-04-21 11:37 | 22.31155 | 113.91515 | 34 ft | 4 kts | 160° |
| 2026-04-21 11:38 | 22.31168 | 113.91510 | 35 ft | 2 kts | 160° |
| 2026-04-21 11:41 | 22.31166 | 113.91511 | 35 ft | 0 kts | 160° |
| 2026-04-21 11:41 | 22.31159 | 113.91514 | 35 ft | 2 kts | 160° |
| 2026-04-21 11:41 | 22.31140 | 113.91521 | 37 ft | 4 kts | 160° |
| 2026-04-21 11:41 | 22.31106 | 113.91534 | 37 ft | 7 kts | 160° |
| 2026-04-21 11:42 | 22.31053 | 113.91554 | 37 ft | 9 kts | 161° |
| 2026-04-21 11:42 | 22.30984 | 113.91580 | 37 ft | 11 kts | 161° |
| 2026-04-21 11:42 | 22.30908 | 113.91608 | 37 ft | 12 kts | 161° |
| 2026-04-21 11:42 | 22.30826 | 113.91639 | 37 ft | 13 kts | 161° |
| 2026-04-21 11:43 | 22.30740 | 113.91671 | 37 ft | 13 kts | 161° |
| 2026-04-21 11:43 | 22.30651 | 113.91705 | 37 ft | 14 kts | 160° |
| 2026-04-21 11:43 | 22.30557 | 113.91740 | 37 ft | 15 kts | 161° |
| 2026-04-21 11:43 | 22.30477 | 113.91771 | 37 ft | 10 kts | 154° |
| 2026-04-21 11:44 | 22.30465 | 113.91835 | 37 ft | 10 kts | 74° |
| 2026-04-21 11:44 | 22.30488 | 113.91911 | 37 ft | 12 kts | 71° |
| 2026-04-21 11:44 | 22.30519 | 113.92008 | 37 ft | 15 kts | 71° |
| 2026-04-21 11:44 | 22.30554 | 113.92120 | 35 ft | 16 kts | 71° |
| 2026-04-21 11:45 | 22.30597 | 113.92248 | 35 ft | 20 kts | 70° |
| 2026-04-21 11:45 | 22.30642 | 113.92391 | 35 ft | 21 kts | 70° |
| 2026-04-21 11:45 | 22.30690 | 113.92539 | 37 ft | 21 kts | 71° |
| 2026-04-21 11:45 | 22.30740 | 113.92692 | 37 ft | 22 kts | 70° |
| 2026-04-21 11:46 | 22.30768 | 113.92775 | 37 ft | 10 kts | 70° |
| 2026-04-21 11:46 | 22.30798 | 113.92865 | 36 ft | 16 kts | 70° |
| 2026-04-21 11:46 | 22.30839 | 113.92994 | 36 ft | 20 kts | 71° |
| 2026-04-21 11:46 | 22.30865 | 113.93109 | 36 ft | 10 kts | 112° |
| 2026-04-21 11:47 | 22.30807 | 113.93137 | 36 ft | 10 kts | 160° |
| 2026-04-21 11:47 | 22.30737 | 113.93167 | 35 ft | 10 kts | 159° |
| 2026-04-21 11:47 | 22.30700 | 113.93137 | 35 ft | 7 kts | 253° |
| 2026-04-21 11:47 | 22.30679 | 113.93073 | 35 ft | 14 kts | 250° |
| 2026-04-21 11:48 | 22.30567 | 113.92729 | 36 ft | 83 kts | 251° |
| 2026-04-21 11:48 | 22.30307 | 113.91924 | 38 ft | 141 kts | 250° |
| 2026-04-21 11:48 | 22.29938 | 113.90772 | 113 ft | 176 kts | 247° |
| 2026-04-21 11:48 | 22.29536 | 113.89552 | 806 ft | 172 kts | 246° |
| 2026-04-21 11:49 | 22.29135 | 113.88330 | 1370 ft | 175 kts | 247° |
| 2026-04-21 11:49 | 22.28714 | 113.87031 | 1590 ft | 193 kts | 246° |
| 2026-04-21 11:49 | 22.28045 | 113.85724 | 1806 ft | 205 kts | 232° |
| 2026-04-21 11:49 | 22.27226 | 113.84441 | 2225 ft | 209 kts | 233° |
| 2026-04-21 11:50 | 22.26395 | 113.83123 | 2697 ft | 215 kts | 232° |
| 2026-04-21 11:50 | 22.25381 | 113.81951 | 3234 ft | 215 kts | 212° |
| 2026-04-21 11:50 | 22.23997 | 113.81327 | 3680 ft | 223 kts | 188° |
| 2026-04-21 11:50 | 22.22412 | 113.81242 | 4184 ft | 231 kts | 181° |
| 2026-04-21 11:51 | 22.20796 | 113.81268 | 4830 ft | 234 kts | 171° |
| 2026-04-21 11:51 | 22.19263 | 113.81881 | 5434 ft | 241 kts | 149° |
| 2026-04-21 11:51 | 22.18004 | 113.83124 | 6005 ft | 250 kts | 135° |
| 2026-04-21 11:51 | 22.16851 | 113.84517 | 6562 ft | 255 kts | 133° |
| 2026-04-21 11:52 | 22.15875 | 113.86173 | 7121 ft | 264 kts | 116° |
| 2026-04-21 11:52 | 22.15190 | 113.88006 | 7690 ft | 268 kts | 115° |
| 2026-04-21 11:52 | 22.14544 | 113.89911 | 8230 ft | 274 kts | 105° |
| 2026-04-21 11:52 | 22.14367 | 113.91986 | 8791 ft | 282 kts | 86° |
| 2026-04-21 11:53 | 22.14813 | 113.94104 | 9050 ft | 301 kts | 66° |
| 2026-04-21 11:53 | 22.15809 | 113.96134 | 9500 ft | 310 kts | 61° |
| 2026-04-21 11:53 | 22.16845 | 113.98189 | 10043 ft | 314 kts | 61° |
| 2026-04-21 11:53 | 22.17887 | 114.00274 | 10575 ft | 317 kts | 61° |
| 2026-04-21 11:54 | 22.19027 | 114.02327 | 11039 ft | 324 kts | 52° |
| 2026-04-21 11:54 | 22.20595 | 114.04161 | 11161 ft | 342 kts | 41° |
| 2026-04-21 11:54 | 22.22413 | 114.05923 | 11277 ft | 360 kts | 35° |
| 2026-04-21 11:54 | 22.24647 | 114.07199 | 11460 ft | 369 kts | 14° |
| 2026-04-21 11:55 | 22.27189 | 114.07629 | 11869 ft | 372 kts | 1° |
| 2026-04-21 11:55 | 22.29781 | 114.07888 | 12386 ft | 377 kts | 6° |
| 2026-04-21 11:55 | 22.32366 | 114.08435 | 12927 ft | 380 kts | 8° |
| 2026-04-21 11:55 | 22.34970 | 114.09011 | 13482 ft | 383 kts | 8° |
| 2026-04-21 11:56 | 22.37542 | 114.09582 | 13995 ft | 386 kts | 8° |
| 2026-04-21 11:56 | 22.40213 | 114.10176 | 14498 ft | 387 kts | 8° |
| 2026-04-21 11:56 | 22.42865 | 114.10766 | 14993 ft | 390 kts | 8° |
| 2026-04-21 11:56 | 22.45487 | 114.11348 | 15503 ft | 392 kts | 8° |
| 2026-04-21 11:57 | 22.48168 | 114.11943 | 16014 ft | 394 kts | 8° |
| 2026-04-21 11:57 | 22.50868 | 114.12497 | 16496 ft | 394 kts | 3° |
| 2026-04-21 11:57 | 22.53595 | 114.12583 | 16973 ft | 392 kts | 352° |
| 2026-04-21 11:57 | 22.56274 | 114.12088 | 17453 ft | 389 kts | 341° |
| 2026-04-21 11:58 | 22.58799 | 114.11048 | 17929 ft | 388 kts | 331° |
| 2026-04-21 11:58 | 22.60769 | 114.10029 | 18302 ft | 389 kts | 331° |
| 2026-04-21 11:58 | 22.64163 | 114.08276 | 18876 ft | 392 kts | 332° |
| 2026-04-21 11:58 | 22.71444 | 114.04534 | 20095 ft | 398 kts | 332° |
| 2026-04-21 11:59 | 22.81545 | 113.99344 | 21671 ft | 406 kts | 332° |
| 2026-04-21 11:59 | 22.91827 | 113.94048 | 23089 ft | 414 kts | 332° |
| 2026-04-21 11:59 | 23.02278 | 113.88590 | 24233 ft | 421 kts | 332° |
| 2026-04-21 11:59 | 23.13134 | 113.83486 | 25276 ft | 430 kts | 338° |
| 2026-04-21 12:00 | 23.24473 | 113.78995 | 26316 ft | 437 kts | 336° |
| 2026-04-21 12:00 | 23.36018 | 113.74412 | 27332 ft | 445 kts | 337° |
| 2026-04-21 12:00 | 23.47438 | 113.69939 | 28262 ft | 452 kts | 336° |
| 2026-04-21 12:00 | 23.59373 | 113.65203 | 29208 ft | 460 kts | 336° |
| 2026-04-21 12:01 | 23.71494 | 113.60407 | 30253 ft | 463 kts | 336° |
| 2026-04-21 12:01 | 23.83505 | 113.55651 | 31515 ft | 457 kts | 336° |
| 2026-04-21 12:01 | 23.95399 | 113.50921 | 32778 ft | 451 kts | 336° |
| 2026-04-21 12:01 | 24.06964 | 113.46314 | 34024 ft | 445 kts | 336° |
| 2026-04-21 12:02 | 24.18612 | 113.41974 | 35000 ft | 445 kts | 346° |
| 2026-04-21 12:02 | 24.43488 | 113.42268 | 34831 ft | 449 kts | 356° |
| 2026-04-21 12:03 | 24.68257 | 113.43072 | 34993 ft | 441 kts | 357° |
| 2026-04-21 12:03 | 24.80547 | 113.43397 | 34964 ft | 446 kts | 356° |
| 2026-04-21 12:04 | 24.86749 | 113.43562 | 34960 ft | 446 kts | 356° |
| 2026-04-21 12:04 | 24.92946 | 113.43731 | 34965 ft | 445 kts | 356° |
| 2026-04-21 12:05 | 24.99143 | 113.43903 | 34977 ft | 446 kts | 356° |
| 2026-04-21 12:05 | 25.05359 | 113.44076 | 34981 ft | 446 kts | 356° |
| 2026-04-21 12:06 | 25.11564 | 113.44254 | 34985 ft | 446 kts | 356° |
| 2026-04-21 12:06 | 25.17762 | 113.44421 | 34987 ft | 445 kts | 356° |
| 2026-04-21 12:07 | 25.23960 | 113.44585 | 35000 ft | 446 kts | 356° |
| 2026-04-21 12:07 | 25.30122 | 113.44754 | 34988 ft | 446 kts | 356° |
| 2026-04-21 12:08 | 25.36324 | 113.44922 | 34992 ft | 446 kts | 356° |
| 2026-04-21 12:08 | 25.42534 | 113.45102 | 34999 ft | 446 kts | 356° |
| 2026-04-21 12:09 | 25.48737 | 113.45271 | 35000 ft | 446 kts | 356° |
| 2026-04-21 12:09 | 25.54941 | 113.45438 | 35006 ft | 446 kts | 356° |
| 2026-04-21 12:10 | 25.61145 | 113.45624 | 35009 ft | 446 kts | 356° |
| 2026-04-21 12:10 | 25.67350 | 113.45804 | 35010 ft | 446 kts | 356° |
| 2026-04-21 12:11 | 25.73553 | 113.45978 | 35017 ft | 446 kts | 356° |
| 2026-04-21 12:11 | 25.79760 | 113.46154 | 35021 ft | 446 kts | 356° |
| 2026-04-21 12:12 | 25.85957 | 113.46337 | 35022 ft | 446 kts | 356° |
| 2026-04-21 12:12 | 25.98382 | 113.46000 | 35021 ft | 442 kts | 351° |
| 2026-04-21 12:13 | 26.23011 | 113.44993 | 35016 ft | 443 kts | 352° |
| 2026-04-21 12:13 | 26.47734 | 113.44025 | 35016 ft | 445 kts | 352° |
| 2026-04-21 12:14 | 26.72444 | 113.43084 | 35021 ft | 444 kts | 352° |
| 2026-04-21 12:14 | 26.97141 | 113.42122 | 35009 ft | 444 kts | 352° |
| 2026-04-21 12:15 | 27.21862 | 113.41187 | 35009 ft | 444 kts | 351° |
| 2026-04-21 12:15 | 27.46487 | 113.40985 | 35026 ft | 449 kts | 355° |
| 2026-04-21 12:16 | 27.71454 | 113.41746 | 35004 ft | 451 kts | 358° |
| 2026-04-21 12:16 | 27.96296 | 113.44145 | 35008 ft | 451 kts | 357° |
| 2026-04-21 12:17 | 28.19723 | 113.46022 | 35007 ft | 450 kts | 356° |
| 2026-04-21 12:17 | 28.25977 | 113.46442 | 35010 ft | 451 kts | 356° |
| 2026-04-21 12:18 | 28.32241 | 113.46890 | 35010 ft | 451 kts | 356° |
| 2026-04-21 12:18 | 28.38483 | 113.47348 | 35012 ft | 450 kts | 356° |
| 2026-04-21 12:19 | 28.44749 | 113.47800 | 35012 ft | 450 kts | 356° |
| 2026-04-21 12:19 | 28.51006 | 113.48247 | 35014 ft | 450 kts | 356° |
| 2026-04-21 12:20 | 28.57251 | 113.48693 | 35011 ft | 450 kts | 356° |
| 2026-04-21 12:20 | 28.63520 | 113.49134 | 35012 ft | 451 kts | 356° |
| 2026-04-21 12:21 | 28.69775 | 113.49579 | 35011 ft | 451 kts | 356° |
| 2026-04-21 12:21 | 28.76039 | 113.50029 | 35016 ft | 451 kts | 356° |
| 2026-04-21 12:22 | 28.82304 | 113.50476 | 35015 ft | 451 kts | 356° |
| 2026-04-21 12:22 | 28.88569 | 113.50930 | 35016 ft | 451 kts | 356° |
| 2026-04-21 12:23 | 28.94797 | 113.51381 | 35015 ft | 451 kts | 356° |
| 2026-04-21 12:23 | 29.01103 | 113.51838 | 35020 ft | 452 kts | 356° |
| 2026-04-21 12:24 | 29.07376 | 113.52290 | 35024 ft | 451 kts | 356° |
| 2026-04-21 12:24 | 29.13643 | 113.52740 | 35025 ft | 451 kts | 356° |
| 2026-04-21 12:25 | 29.19910 | 113.53193 | 35026 ft | 451 kts | 356° |
| 2026-04-21 12:25 | 29.26174 | 113.53641 | 35033 ft | 451 kts | 356° |
| 2026-04-21 12:26 | 29.32392 | 113.54110 | 35033 ft | 451 kts | 356° |
| 2026-04-21 12:26 | 29.38510 | 113.54650 | 35035 ft | 452 kts | 356° |
| 2026-04-21 12:27 | 29.44764 | 113.55222 | 35037 ft | 451 kts | 356° |
| 2026-04-21 12:27 | 29.51017 | 113.55777 | 35043 ft | 450 kts | 356° |
| 2026-04-21 12:28 | 29.57270 | 113.56312 | 35043 ft | 450 kts | 356° |
| 2026-04-21 12:28 | 29.63502 | 113.56846 | 35051 ft | 449 kts | 356° |
| 2026-04-21 12:29 | 29.69719 | 113.57384 | 35055 ft | 448 kts | 356° |
| 2026-04-21 12:29 | 29.75920 | 113.57928 | 35050 ft | 447 kts | 356° |
| 2026-04-21 12:30 | 29.82121 | 113.58478 | 35049 ft | 446 kts | 355° |
| 2026-04-21 12:30 | 29.88303 | 113.59014 | 35048 ft | 445 kts | 355° |
| 2026-04-21 12:31 | 29.94490 | 113.59844 | 35049 ft | 457 kts | 6° |
| 2026-04-21 12:31 | 29.97542 | 113.61042 | 35046 ft | 469 kts | 14° |
| 2026-04-21 12:31 | 30.00529 | 113.62541 | 35046 ft | 469 kts | 14° |
| 2026-04-21 12:32 | 30.06530 | 113.65551 | 35048 ft | 470 kts | 14° |
| 2026-04-21 12:32 | 30.12533 | 113.68545 | 35045 ft | 470 kts | 14° |
| 2026-04-21 12:33 | 30.18540 | 113.71546 | 35048 ft | 471 kts | 14° |
| 2026-04-21 12:33 | 30.24549 | 113.74546 | 35048 ft | 471 kts | 14° |
| 2026-04-21 12:34 | 30.30527 | 113.77532 | 35044 ft | 471 kts | 14° |
| 2026-04-21 12:34 | 30.36536 | 113.80552 | 35045 ft | 471 kts | 14° |
| 2026-04-21 12:35 | 30.42546 | 113.83580 | 35042 ft | 471 kts | 14° |
| 2026-04-21 12:35 | 30.48563 | 113.86603 | 35043 ft | 472 kts | 14° |
| 2026-04-21 12:36 | 30.54587 | 113.89625 | 35042 ft | 472 kts | 15° |
| 2026-04-21 12:36 | 30.60618 | 113.92663 | 35039 ft | 472 kts | 15° |
| 2026-04-21 12:37 | 30.66649 | 113.95690 | 35042 ft | 472 kts | 14° |
| 2026-04-21 12:37 | 30.72710 | 113.98677 | 35040 ft | 474 kts | 17° |
| 2026-04-21 12:38 | 30.78684 | 114.01981 | 35039 ft | 477 kts | 19° |
| 2026-04-21 12:38 | 30.84647 | 114.05361 | 35032 ft | 477 kts | 18° |
| 2026-04-21 12:39 | 30.90648 | 114.08634 | 35031 ft | 477 kts | 18° |
| 2026-04-21 12:39 | 30.96683 | 114.11862 | 35034 ft | 477 kts | 18° |
| 2026-04-21 12:40 | 31.02716 | 114.15117 | 35039 ft | 479 kts | 19° |
| 2026-04-21 12:40 | 31.08598 | 114.18320 | 35030 ft | 479 kts | 19° |
| 2026-04-21 12:41 | 31.14602 | 114.21596 | 35040 ft | 480 kts | 19° |
| 2026-04-21 12:41 | 31.20650 | 114.24902 | 35040 ft | 480 kts | 20° |
| 2026-04-21 12:42 | 31.26701 | 114.28205 | 35045 ft | 480 kts | 20° |
| 2026-04-21 12:42 | 31.32764 | 114.31475 | 35043 ft | 478 kts | 16° |
| 2026-04-21 12:43 | 31.39132 | 114.33223 | 35042 ft | 464 kts | 358° |
| 2026-04-21 12:43 | 31.45558 | 114.33451 | 35052 ft | 462 kts | 356° |
| 2026-04-21 12:44 | 31.51992 | 114.33647 | 35052 ft | 463 kts | 356° |
| 2026-04-21 12:44 | 31.57351 | 114.33806 | 35060 ft | 463 kts | 356° |
| 2026-04-21 12:45 | 31.63799 | 114.33989 | 35063 ft | 464 kts | 356° |
| 2026-04-21 12:45 | 31.70259 | 114.34177 | 35072 ft | 465 kts | 356° |
| 2026-04-21 12:46 | 31.76737 | 114.34373 | 35076 ft | 465 kts | 356° |
| 2026-04-21 12:46 | 31.83216 | 114.34574 | 35083 ft | 466 kts | 356° |
| 2026-04-21 12:47 | 31.90806 | 114.34807 | 35086 ft | 467 kts | 356° |
| 2026-04-21 12:47 | 31.96201 | 114.34965 | 35094 ft | 467 kts | 356° |
| 2026-04-21 12:48 | 32.02714 | 114.35152 | 35096 ft | 468 kts | 356° |
| 2026-04-21 12:48 | 32.09225 | 114.35356 | 35100 ft | 468 kts | 356° |
| 2026-04-21 12:49 | 32.15743 | 114.35556 | 35099 ft | 469 kts | 356° |
| 2026-04-21 12:49 | 32.22262 | 114.35756 | 35110 ft | 469 kts | 356° |
| 2026-04-21 12:50 | 32.28787 | 114.36011 | 35115 ft | 470 kts | 359° |
| 2026-04-21 12:50 | 32.35283 | 114.36595 | 35120 ft | 471 kts | 0° |
| 2026-04-21 12:51 | 32.41813 | 114.37299 | 35119 ft | 471 kts | 0° |
| 2026-04-21 12:51 | 32.48388 | 114.37963 | 35125 ft | 471 kts | 360° |
| 2026-04-21 12:52 | 32.54921 | 114.38554 | 35126 ft | 471 kts | 359° |
| 2026-04-21 12:52 | 32.60995 | 114.39100 | 35130 ft | 471 kts | 0° |
| 2026-04-21 12:53 | 32.67534 | 114.39694 | 35131 ft | 472 kts | 360° |
| 2026-04-21 12:53 | 32.74080 | 114.40290 | 35130 ft | 472 kts | 360° |
| 2026-04-21 12:54 | 32.80645 | 114.40902 | 35130 ft | 473 kts | 360° |
| 2026-04-21 12:54 | 32.87208 | 114.41521 | 35136 ft | 474 kts | 360° |
| 2026-04-21 12:55 | 32.93782 | 114.42136 | 35139 ft | 474 kts | 360° |
| 2026-04-21 12:55 | 33.00366 | 114.42752 | 35140 ft | 475 kts | 360° |
| 2026-04-21 12:56 | 33.06960 | 114.43380 | 35145 ft | 476 kts | 360° |
| 2026-04-21 12:56 | 33.13527 | 114.43989 | 35146 ft | 476 kts | 359° |
| 2026-04-21 12:57 | 33.20136 | 114.44600 | 35146 ft | 477 kts | 359° |
| 2026-04-21 12:57 | 33.26745 | 114.45220 | 35157 ft | 477 kts | 359° |
| 2026-04-21 12:58 | 33.33406 | 114.45850 | 35159 ft | 477 kts | 359° |
| 2026-04-21 12:58 | 33.39993 | 114.46477 | 35163 ft | 478 kts | 359° |
| 2026-04-21 12:59 | 33.46616 | 114.47102 | 35168 ft | 478 kts | 359° |
| 2026-04-21 12:59 | 33.53243 | 114.47726 | 35172 ft | 478 kts | 359° |
| 2026-04-21 13:00 | 33.59872 | 114.48356 | 35172 ft | 478 kts | 359° |
| 2026-04-21 13:00 | 33.66511 | 114.48941 | 35176 ft | 477 kts | 358° |
| 2026-04-21 13:01 | 33.73138 | 114.49440 | 35183 ft | 478 kts | 358° |
| 2026-04-21 13:01 | 33.79767 | 114.50097 | 35188 ft | 479 kts | 360° |
| 2026-04-21 13:02 | 33.86160 | 114.50820 | 35190 ft | 478 kts | 359° |
| 2026-04-21 13:02 | 33.96117 | 114.51776 | 35190 ft | 478 kts | 358° |
| 2026-04-21 13:03 | 34.02741 | 114.52374 | 35194 ft | 478 kts | 358° |
| 2026-04-21 13:03 | 34.09374 | 114.52993 | 35191 ft | 478 kts | 358° |
| 2026-04-21 13:04 | 34.15964 | 114.53620 | 35190 ft | 478 kts | 358° |
| 2026-04-21 13:04 | 34.22594 | 114.54251 | 35188 ft | 478 kts | 358° |
| 2026-04-21 13:05 | 34.29012 | 114.54870 | 35200 ft | 478 kts | 358° |
| 2026-04-21 13:05 | 34.35638 | 114.55504 | 35202 ft | 477 kts | 358° |
| 2026-04-21 13:06 | 34.42259 | 114.56129 | 35203 ft | 477 kts | 358° |
| 2026-04-21 13:06 | 34.48859 | 114.56756 | 35200 ft | 476 kts | 359° |
| 2026-04-21 13:07 | 34.55470 | 114.57397 | 35201 ft | 476 kts | 359° |
| 2026-04-21 13:07 | 34.62074 | 114.58038 | 35204 ft | 475 kts | 359° |
| 2026-04-21 13:08 | 34.68666 | 114.58682 | 35203 ft | 475 kts | 359° |
| 2026-04-21 13:08 | 34.75254 | 114.59332 | 35206 ft | 475 kts | 359° |
| 2026-04-21 13:09 | 34.81844 | 114.59978 | 35203 ft | 475 kts | 359° |
| 2026-04-21 13:09 | 34.88440 | 114.60620 | 35204 ft | 476 kts | 359° |
| 2026-04-21 13:10 | 34.95057 | 114.61263 | 35199 ft | 477 kts | 359° |
| 2026-04-21 13:10 | 35.01689 | 114.61916 | 35194 ft | 478 kts | 359° |
| 2026-04-21 13:11 | 35.08294 | 114.62564 | 35193 ft | 480 kts | 359° |
| 2026-04-21 13:11 | 35.14957 | 114.63204 | 35192 ft | 481 kts | 359° |
| 2026-04-21 13:12 | 35.21639 | 114.63853 | 35191 ft | 482 kts | 359° |
| 2026-04-21 13:12 | 35.28332 | 114.64509 | 35195 ft | 483 kts | 359° |
| 2026-04-21 13:13 | 35.35044 | 114.65163 | 35194 ft | 484 kts | 359° |
| 2026-04-21 13:13 | 35.41773 | 114.65799 | 35197 ft | 485 kts | 358° |
| 2026-04-21 13:14 | 35.48508 | 114.66422 | 35192 ft | 486 kts | 358° |
| 2026-04-21 13:14 | 35.55252 | 114.67062 | 35198 ft | 486 kts | 358° |
| 2026-04-21 13:15 | 35.62004 | 114.67711 | 35203 ft | 487 kts | 358° |
| 2026-04-21 13:15 | 35.68519 | 114.68337 | 35204 ft | 487 kts | 358° |
| 2026-04-21 13:16 | 35.75270 | 114.68983 | 35201 ft | 487 kts | 358° |
| 2026-04-21 13:16 | 35.82022 | 114.69618 | 35201 ft | 487 kts | 358° |
| 2026-04-21 13:17 | 35.88740 | 114.70260 | 35200 ft | 487 kts | 358° |
| 2026-04-21 13:17 | 35.95489 | 114.70912 | 35199 ft | 487 kts | 358° |
| 2026-04-21 13:18 | 36.02238 | 114.71563 | 35202 ft | 487 kts | 358° |
| 2026-04-21 13:18 | 36.08987 | 114.72218 | 35197 ft | 487 kts | 357° |
| 2026-04-21 13:19 | 36.15745 | 114.72883 | 35198 ft | 487 kts | 357° |
| 2026-04-21 13:19 | 36.22492 | 114.73543 | 35196 ft | 487 kts | 357° |
| 2026-04-21 13:20 | 36.29243 | 114.74200 | 35196 ft | 486 kts | 357° |
| 2026-04-21 13:20 | 36.35745 | 114.74846 | 35190 ft | 487 kts | 356° |
| 2026-04-21 13:21 | 36.42428 | 114.74803 | 35186 ft | 478 kts | 349° |
| 2026-04-21 13:21 | 36.49081 | 114.74497 | 35185 ft | 478 kts | 349° |
| 2026-04-21 13:22 | 36.55734 | 114.74190 | 35183 ft | 479 kts | 349° |
| 2026-04-21 13:22 | 36.62388 | 114.73882 | 35177 ft | 479 kts | 349° |
| 2026-04-21 13:23 | 36.69050 | 114.73580 | 35176 ft | 479 kts | 349° |
| 2026-04-21 13:23 | 36.75734 | 114.73561 | 35168 ft | 489 kts | 359° |
| 2026-04-21 13:24 | 36.79110 | 114.74373 | 35165 ft | 500 kts | 9° |
| 2026-04-21 13:24 | 36.82394 | 114.75896 | 35162 ft | 509 kts | 19° |
| 2026-04-21 13:24 | 36.88816 | 114.79649 | 35164 ft | 510 kts | 19° |
| 2026-04-21 13:25 | 36.95250 | 114.83394 | 35151 ft | 510 kts | 18° |
| 2026-04-21 13:25 | 37.01685 | 114.87136 | 35148 ft | 510 kts | 18° |
| 2026-04-21 13:26 | 37.08124 | 114.90893 | 35145 ft | 510 kts | 18° |
| 2026-04-21 13:26 | 37.14555 | 114.94660 | 35140 ft | 511 kts | 18° |
| 2026-04-21 13:27 | 37.21001 | 114.98447 | 35140 ft | 511 kts | 18° |
| 2026-04-21 13:27 | 37.27395 | 115.02208 | 35135 ft | 511 kts | 18° |
| 2026-04-21 13:28 | 37.33884 | 115.06028 | 35130 ft | 511 kts | 18° |
| 2026-04-21 13:28 | 37.40283 | 115.09802 | 35132 ft | 511 kts | 18° |
| 2026-04-21 13:29 | 37.46722 | 115.13602 | 35134 ft | 511 kts | 18° |
| 2026-04-21 13:29 | 37.53066 | 115.17363 | 35132 ft | 512 kts | 18° |
| 2026-04-21 13:30 | 37.59510 | 115.21189 | 35131 ft | 512 kts | 18° |
| 2026-04-21 13:30 | 37.64868 | 115.24368 | 35131 ft | 512 kts | 18° |
| 2026-04-21 13:31 | 37.72398 | 115.28836 | 35131 ft | 512 kts | 18° |
| 2026-04-21 13:31 | 37.77801 | 115.31801 | 35028 ft | 504 kts | 9° |
| 2026-04-21 13:32 | 37.81144 | 115.32933 | 34780 ft | 493 kts | 2° |
| 2026-04-21 13:32 | 37.84499 | 115.33745 | 34556 ft | 491 kts | 0° |
| 2026-04-21 13:32 | 37.87858 | 115.34470 | 34326 ft | 489 kts | 360° |
| 2026-04-21 13:32 | 37.91217 | 115.35143 | 34096 ft | 489 kts | 359° |
| 2026-04-21 13:33 | 37.94579 | 115.35803 | 33779 ft | 489 kts | 359° |
| 2026-04-21 13:33 | 37.97937 | 115.36476 | 33378 ft | 489 kts | 0° |
| 2026-04-21 13:33 | 38.01299 | 115.37172 | 32992 ft | 489 kts | 1° |
| 2026-04-21 13:33 | 38.04646 | 115.37892 | 32610 ft | 487 kts | 1° |
| 2026-04-21 13:34 | 38.07978 | 115.38625 | 32216 ft | 483 kts | 2° |
| 2026-04-21 13:34 | 38.11273 | 115.39353 | 31846 ft | 478 kts | 2° |
| 2026-04-21 13:34 | 38.14537 | 115.40072 | 31476 ft | 473 kts | 2° |
| 2026-04-21 13:34 | 38.17765 | 115.40780 | 31147 ft | 467 kts | 2° |
| 2026-04-21 13:35 | 38.20953 | 115.41474 | 31044 ft | 463 kts | 2° |
| 2026-04-21 13:35 | 38.24139 | 115.42163 | 30989 ft | 464 kts | 2° |
| 2026-04-21 13:35 | 38.27313 | 115.42850 | 30744 ft | 461 kts | 2° |
| 2026-04-21 13:35 | 38.30458 | 115.43535 | 30505 ft | 457 kts | 2° |
| 2026-04-21 13:36 | 38.33578 | 115.44216 | 30276 ft | 453 kts | 2° |
| 2026-04-21 13:36 | 38.36671 | 115.44894 | 30045 ft | 449 kts | 3° |
| 2026-04-21 13:36 | 38.39744 | 115.45565 | 29767 ft | 446 kts | 3° |
| 2026-04-21 13:36 | 38.42793 | 115.46227 | 29494 ft | 443 kts | 3° |
| 2026-04-21 13:37 | 38.45825 | 115.46888 | 29221 ft | 441 kts | 3° |
| 2026-04-21 13:37 | 38.48844 | 115.47526 | 28946 ft | 439 kts | 3° |
| 2026-04-21 13:37 | 38.51848 | 115.48155 | 28626 ft | 436 kts | 3° |
| 2026-04-21 13:37 | 38.54834 | 115.48776 | 28306 ft | 434 kts | 3° |
| 2026-04-21 13:38 | 38.57804 | 115.49390 | 27998 ft | 432 kts | 2° |
| 2026-04-21 13:38 | 38.60763 | 115.49999 | 27689 ft | 430 kts | 2° |
| 2026-04-21 13:38 | 38.63711 | 115.50602 | 27385 ft | 428 kts | 2° |
| 2026-04-21 13:38 | 38.66644 | 115.51198 | 27086 ft | 426 kts | 2° |
| 2026-04-21 13:39 | 38.69561 | 115.51789 | 26787 ft | 424 kts | 2° |
| 2026-04-21 13:39 | 38.72466 | 115.52374 | 26495 ft | 421 kts | 2° |
| 2026-04-21 13:39 | 38.75354 | 115.52954 | 26198 ft | 419 kts | 2° |
| 2026-04-21 13:39 | 38.78230 | 115.53527 | 25853 ft | 417 kts | 2° |
| 2026-04-21 13:40 | 38.81084 | 115.54092 | 25446 ft | 414 kts | 2° |
| 2026-04-21 13:40 | 38.83921 | 115.54648 | 25047 ft | 410 kts | 2° |
| 2026-04-21 13:40 | 38.86698 | 115.55186 | 24661 ft | 407 kts | 2° |
| 2026-04-21 13:40 | 38.89492 | 115.55720 | 24267 ft | 404 kts | 2° |
| 2026-04-21 13:41 | 38.92300 | 115.56248 | 23876 ft | 401 kts | 2° |
| 2026-04-21 13:41 | 38.95022 | 115.56751 | 23494 ft | 398 kts | 2° |
| 2026-04-21 13:41 | 38.97755 | 115.57244 | 23036 ft | 395 kts | 3° |
| 2026-04-21 13:41 | 39.00470 | 115.57712 | 22580 ft | 392 kts | 2° |
| 2026-04-21 13:42 | 39.03164 | 115.58156 | 22133 ft | 388 kts | 3° |
| 2026-04-21 13:42 | 39.05820 | 115.58767 | 21680 ft | 390 kts | 14° |
| 2026-04-21 13:42 | 39.08363 | 115.59962 | 21220 ft | 389 kts | 17° |
| 2026-04-21 13:42 | 39.10872 | 115.61206 | 20833 ft | 384 kts | 18° |
| 2026-04-21 13:43 | 39.13348 | 115.62427 | 20450 ft | 379 kts | 18° |
| 2026-04-21 13:43 | 39.15802 | 115.63626 | 20031 ft | 375 kts | 18° |
| 2026-04-21 13:43 | 39.18230 | 115.64800 | 19618 ft | 371 kts | 18° |
| 2026-04-21 13:43 | 39.20629 | 115.65948 | 19206 ft | 367 kts | 18° |
| 2026-04-21 13:44 | 39.23020 | 115.67080 | 18799 ft | 363 kts | 18° |
| 2026-04-21 13:44 | 39.25389 | 115.68190 | 18431 ft | 361 kts | 18° |
| 2026-04-21 13:44 | 39.27742 | 115.69284 | 18063 ft | 358 kts | 17° |
| 2026-04-21 13:44 | 39.30079 | 115.70366 | 17653 ft | 355 kts | 17° |
| 2026-04-21 13:45 | 39.32394 | 115.71435 | 17223 ft | 352 kts | 17° |
| 2026-04-21 13:45 | 39.34605 | 115.72753 | 16840 ft | 351 kts | 30° |
| 2026-04-21 13:45 | 39.36650 | 115.74468 | 16537 ft | 350 kts | 31° |
| 2026-04-21 13:45 | 39.38682 | 115.76181 | 16227 ft | 348 kts | 31° |
| 2026-04-21 13:46 | 39.40701 | 115.77891 | 15926 ft | 346 kts | 31° |
| 2026-04-21 13:46 | 39.42708 | 115.79596 | 15556 ft | 343 kts | 31° |
| 2026-04-21 13:46 | 39.44703 | 115.81257 | 15151 ft | 339 kts | 30° |
| 2026-04-21 13:46 | 39.46699 | 115.82865 | 14727 ft | 335 kts | 30° |
| 2026-04-21 13:47 | 39.48678 | 115.84431 | 14290 ft | 332 kts | 30° |
| 2026-04-21 13:47 | 39.50644 | 115.85978 | 13874 ft | 329 kts | 30° |
| 2026-04-21 13:47 | 39.52593 | 115.87509 | 13415 ft | 326 kts | 30° |
| 2026-04-21 13:47 | 39.54523 | 115.89038 | 12940 ft | 323 kts | 30° |
| 2026-04-21 13:48 | 39.56427 | 115.90561 | 12487 ft | 321 kts | 30° |
| 2026-04-21 13:48 | 39.58315 | 115.92080 | 12040 ft | 318 kts | 30° |
| 2026-04-21 13:48 | 39.60189 | 115.93587 | 11600 ft | 316 kts | 30° |
| 2026-04-21 13:48 | 39.62052 | 115.95081 | 11153 ft | 313 kts | 30° |
| 2026-04-21 13:49 | 39.63890 | 115.96555 | 10885 ft | 306 kts | 30° |
| 2026-04-21 13:49 | 39.65662 | 115.97978 | 10763 ft | 294 kts | 30° |
| 2026-04-21 13:49 | 39.67371 | 115.99351 | 10602 ft | 284 kts | 30° |
| 2026-04-21 13:49 | 39.69037 | 116.00691 | 10320 ft | 280 kts | 30° |
| 2026-04-21 13:50 | 39.70685 | 116.02016 | 10002 ft | 278 kts | 30° |
| 2026-04-21 13:50 | 39.72319 | 116.03328 | 9653 ft | 276 kts | 30° |
| 2026-04-21 13:50 | 39.73889 | 116.04745 | 9261 ft | 277 kts | 43° |
| 2026-04-21 13:50 | 39.74914 | 116.06854 | 8872 ft | 281 kts | 70° |
| 2026-04-21 13:51 | 39.75134 | 116.09377 | 8465 ft | 285 kts | 89° |
| 2026-04-21 13:51 | 39.75008 | 116.11922 | 8079 ft | 286 kts | 92° |
| 2026-04-21 13:51 | 39.74846 | 116.14490 | 7719 ft | 285 kts | 92° |
| 2026-04-21 13:51 | 39.74681 | 116.17049 | 7345 ft | 282 kts | 92° |
| 2026-04-21 13:52 | 39.74522 | 116.19544 | 7215 ft | 266 kts | 92° |
| 2026-04-21 13:52 | 39.74370 | 116.21876 | 7059 ft | 252 kts | 92° |
| 2026-04-21 13:52 | 39.74225 | 116.24120 | 6734 ft | 247 kts | 92° |
| 2026-04-21 13:52 | 39.74094 | 116.26328 | 6310 ft | 244 kts | 92° |
| 2026-04-21 13:53 | 39.73980 | 116.28517 | 5654 ft | 242 kts | 92° |
| 2026-04-21 13:53 | 39.73891 | 116.30716 | 4964 ft | 244 kts | 93° |
| 2026-04-21 13:53 | 39.73754 | 116.32909 | 4257 ft | 243 kts | 107° |
| 2026-04-21 13:53 | 39.72892 | 116.34705 | 3923 ft | 228 kts | 143° |
| 2026-04-21 13:54 | 39.71561 | 116.35650 | 3557 ft | 216 kts | 184° |
| 2026-04-21 13:54 | 39.70103 | 116.35704 | 3557 ft | 205 kts | 177° |
| 2026-04-21 13:54 | 39.68773 | 116.35981 | 3421 ft | 189 kts | 176° |
| 2026-04-21 13:54 | 39.67493 | 116.36221 | 3193 ft | 184 kts | 178° |
| 2026-04-21 13:55 | 39.66233 | 116.36430 | 2955 ft | 182 kts | 179° |
| 2026-04-21 13:55 | 39.64987 | 116.36631 | 2720 ft | 178 kts | 179° |
| 2026-04-21 13:55 | 39.63760 | 116.36827 | 2489 ft | 172 kts | 179° |
| 2026-04-21 13:55 | 39.62613 | 116.37011 | 2265 ft | 164 kts | 181° |
| 2026-04-21 13:56 | 39.61505 | 116.37188 | 2056 ft | 156 kts | 181° |
| 2026-04-21 13:56 | 39.60463 | 116.37354 | 1858 ft | 147 kts | 182° |
| 2026-04-21 13:56 | 39.59466 | 116.37511 | 1662 ft | 142 kts | 183° |
| 2026-04-21 13:56 | 39.58516 | 116.37661 | 1477 ft | 135 kts | 182° |
| 2026-04-21 13:57 | 39.57587 | 116.37806 | 1288 ft | 134 kts | 182° |
| 2026-04-21 13:57 | 39.56657 | 116.37953 | 1102 ft | 134 kts | 180° |
| 2026-04-21 13:57 | 39.55738 | 116.38097 | 918 ft | 134 kts | 181° |
| 2026-04-21 13:57 | 39.54811 | 116.38238 | 733 ft | 134 kts | 177° |
| 2026-04-21 13:58 | 39.53875 | 116.38385 | 559 ft | 138 kts | 178° |
| 2026-04-21 13:58 | 39.52933 | 116.38536 | 394 ft | 136 kts | 176° |
| 2026-04-21 13:58 | 39.51997 | 116.38686 | 209 ft | 136 kts | 176° |
| 2026-04-21 13:58 | 39.51085 | 116.38834 | 98 ft | 120 kts | 174° |
| 2026-04-21 13:59 | 39.50404 | 116.38937 | 94 ft | 74 kts | 173° |
| 2026-04-21 13:59 | 39.50078 | 116.39004 | 93 ft | 24 kts | 147° |
| 2026-04-21 13:59 | 39.49938 | 116.39108 | 93 ft | 23 kts | 148° |
| 2026-04-21 13:59 | 39.49797 | 116.39224 | 89 ft | 25 kts | 149° |
| 2026-04-21 14:00 | 39.49680 | 116.39282 | 90 ft | 15 kts | 174° |
| 2026-04-21 14:00 | 39.49572 | 116.39297 | 90 ft | 16 kts | 173° |
| 2026-04-21 14:00 | 39.49453 | 116.39313 | 89 ft | 18 kts | 173° |
| 2026-04-21 14:00 | 39.49329 | 116.39337 | 89 ft | 17 kts | 163° |
| 2026-04-21 14:01 | 39.49232 | 116.39412 | 89 ft | 17 kts | 147° |
| 2026-04-21 14:01 | 39.49154 | 116.39483 | 88 ft | 10 kts | 137° |
| 2026-04-21 14:01 | 39.49145 | 116.39573 | 86 ft | 11 kts | 83° |
| 2026-04-21 14:01 | 39.49157 | 116.39679 | 87 ft | 12 kts | 82° |
| 2026-04-21 14:02 | 39.49164 | 116.39752 | 90 ft | 12 kts | 84° |
| 2026-04-21 14:02 | 39.49174 | 116.39882 | 94 ft | 8 kts | 84° |
| 2026-04-21 14:02 | 39.49178 | 116.39922 | 100 ft | 2 kts | 81° |
| 2026-04-21 14:03 | 39.49179 | 116.39932 | 101 ft | 2 kts | 81° |
| 2026-04-21 14:03 | 39.49185 | 116.39980 | 102 ft | 10 kts | 82° |
| 2026-04-21 14:03 | 39.49195 | 116.40086 | 101 ft | 14 kts | 83° |
| 2026-04-21 14:03 | 39.49210 | 116.40247 | 92 ft | 22 kts | 83° |
| 2026-04-21 14:04 | 39.49237 | 116.40344 | 88 ft | 8 kts | 21° |
| 2026-04-21 14:04 | 39.49292 | 116.40350 | 88 ft | 7 kts | 351° |
| 2026-04-21 14:04 | 39.49335 | 116.40340 | 90 ft | 5 kts | 351° |
| 2026-04-21 14:04 | 39.49371 | 116.40333 | 87 ft | 5 kts | 353° |
| 2026-04-21 14:05 | 39.49410 | 116.40327 | 87 ft | 7 kts | 354° |
| 2026-04-21 14:05 | 39.49464 | 116.40322 | 89 ft | 9 kts | 354° |
| 2026-04-21 14:05 | 39.49536 | 116.40310 | 88 ft | 12 kts | 352° |
| 2026-04-21 14:05 | 39.49636 | 116.40292 | 88 ft | 16 kts | 353° |
| 2026-04-21 14:06 | 39.49762 | 116.40273 | 88 ft | 20 kts | 354° |
| 2026-04-21 14:06 | 39.49910 | 116.40250 | 88 ft | 21 kts | 352° |
| 2026-04-21 14:06 | 39.50047 | 116.40227 | 87 ft | 16 kts | 354° |
| 2026-04-21 14:06 | 39.50109 | 116.40256 | 88 ft | 9 kts | 49° |
| 2026-04-21 14:07 | 39.50117 | 116.40323 | 88 ft | 8 kts | 86° |
| 2026-04-21 14:07 | 39.50122 | 116.40405 | 88 ft | 10 kts | 85° |
| 2026-04-21 14:07 | 39.50132 | 116.40503 | 89 ft | 11 kts | 81° |
| 2026-04-21 14:07 | 39.50144 | 116.40616 | 89 ft | 14 kts | 83° |
| 2026-04-21 14:08 | 39.50155 | 116.40736 | 86 ft | 12 kts | 82° |
| 2026-04-21 14:08 | 39.50178 | 116.40812 | 87 ft | 8 kts | 35° |
| 2026-04-21 14:08 | 39.50230 | 116.40818 | 88 ft | 8 kts | 352° |
| 2026-04-21 14:08 | 39.50289 | 116.40807 | 88 ft | 9 kts | 353° |
| 2026-04-21 14:09 | 39.50353 | 116.40797 | 89 ft | 9 kts | 353° |
| 2026-04-21 14:09 | 39.50412 | 116.40788 | 87 ft | 8 kts | 353° |
| 2026-04-21 14:09 | 39.50461 | 116.40782 | 87 ft | 7 kts | 1° |
| 2026-04-21 14:09 | 39.50511 | 116.40804 | 87 ft | 8 kts | 23° |
| 2026-04-21 14:10 | 39.50562 | 116.40839 | 90 ft | 7 kts | 42° |
| 2026-04-21 14:10 | 39.50583 | 116.40889 | 88 ft | 6 kts | 78° |
| 2026-04-21 14:10 | 39.50581 | 116.40944 | 85 ft | 6 kts | 95° |
| 2026-04-21 14:10 | 39.50577 | 116.40996 | 86 ft | 5 kts | 95° |
| 2026-04-21 14:11 | 39.50575 | 116.41033 | 89 ft | 2 kts | 95° |
| 2026-04-21 14:11 | 39.50575 | 116.41036 | 89 ft | 0 kts | 94° |